createdAt,value
2022-10-26T00:00:03.927Z,0.00
2022-10-26T00:01:03.977Z,0.00
2022-10-26T00:02:04.122Z,0.00
2022-10-26T00:03:03.968Z,0.00
2022-10-26T00:04:03.988Z,0.00
2022-10-26T00:05:03.998Z,0.00
2022-10-26T00:06:04.008Z,0.00
2022-10-26T00:07:04.021Z,0.00
2022-10-26T00:08:04.034Z,0.00
2022-10-26T00:09:04.049Z,0.00
2022-10-26T00:10:04.063Z,0.00
2022-10-26T00:11:04.075Z,0.00
2022-10-26T00:12:04.090Z,0.00
2022-10-26T00:13:04.101Z,0.00
2022-10-26T00:14:04.114Z,0.00
2022-10-26T00:15:04.127Z,0.00
2022-10-26T00:16:04.152Z,0.00
2022-10-26T00:17:04.154Z,0.00
2022-10-26T00:18:04.168Z,0.00
2022-10-26T00:19:04.181Z,0.00
2022-10-26T00:20:04.197Z,0.00
2022-10-26T00:21:04.212Z,0.00
2022-10-26T00:22:04.222Z,0.00
2022-10-26T00:23:04.239Z,0.00
2022-10-26T00:24:04.304Z,0.00
2022-10-26T00:25:04.268Z,0.00
2022-10-26T00:26:04.276Z,0.00
2022-10-26T00:27:04.299Z,0.00
2022-10-26T00:28:04.304Z,0.00
2022-10-26T00:29:04.315Z,0.00
2022-10-26T00:30:04.331Z,0.00
2022-10-26T00:31:04.344Z,0.00
2022-10-26T00:32:04.357Z,0.00
2022-10-26T00:33:04.371Z,0.00
2022-10-26T00:34:04.382Z,0.00
2022-10-26T00:35:11.848Z,0.00
2022-10-26T00:36:04.415Z,0.00
2022-10-26T00:37:04.423Z,0.00
2022-10-26T00:38:04.435Z,0.00
2022-10-26T00:39:04.448Z,0.00
2022-10-26T00:40:04.462Z,0.00
2022-10-26T00:41:04.477Z,0.00
2022-10-26T00:42:04.486Z,0.00
2022-10-26T00:43:04.504Z,0.00
2022-10-26T00:44:04.514Z,0.00
2022-10-26T00:45:04.530Z,0.00
2022-10-26T00:46:04.545Z,0.00
2022-10-26T00:47:04.557Z,0.00
2022-10-26T00:48:04.570Z,0.00
2022-10-26T00:49:04.584Z,0.00
2022-10-26T00:50:04.593Z,0.00
2022-10-26T00:51:04.609Z,0.00
2022-10-26T00:52:04.621Z,0.00
2022-10-26T00:53:04.638Z,0.00
2022-10-26T00:54:04.647Z,0.00
2022-10-26T00:55:04.661Z,0.00
2022-10-26T00:56:04.674Z,0.00
2022-10-26T00:57:04.698Z,0.00
2022-10-26T00:58:04.701Z,0.00
2022-10-26T00:59:04.714Z,0.00
2022-10-26T01:00:04.728Z,0.00
2022-10-26T01:01:04.870Z,0.00
2022-10-26T01:02:04.754Z,0.00
2022-10-26T01:03:04.767Z,0.00
2022-10-26T01:04:04.851Z,0.00
2022-10-26T01:05:04.797Z,0.00
2022-10-26T01:06:04.807Z,0.00
2022-10-26T01:07:04.819Z,0.00
2022-10-26T01:08:04.832Z,0.00
2022-10-26T01:09:04.847Z,0.00
2022-10-26T01:10:04.859Z,0.00
2022-10-26T01:11:04.872Z,0.00
2022-10-26T01:12:04.886Z,0.00
2022-10-26T01:13:04.900Z,0.00
2022-10-26T01:14:04.912Z,0.00
2022-10-26T01:15:04.925Z,0.00
2022-10-26T01:16:04.940Z,0.00
2022-10-26T01:17:04.957Z,0.00
2022-10-26T01:18:04.966Z,0.00
2022-10-26T01:19:04.978Z,0.00
2022-10-26T01:20:04.990Z,0.00
2022-10-26T01:21:05.005Z,0.00
2022-10-26T01:22:05.017Z,0.00
2022-10-26T01:23:05.027Z,0.00
2022-10-26T01:24:05.043Z,0.00
2022-10-26T01:25:05.059Z,0.00
2022-10-26T01:26:05.069Z,0.00
2022-10-26T01:27:05.083Z,0.00
2022-10-26T01:28:05.094Z,0.00
2022-10-26T01:29:05.109Z,0.00
2022-10-26T01:30:05.123Z,0.00
2022-10-26T01:31:05.138Z,0.00
2022-10-26T01:32:05.148Z,0.00
2022-10-26T01:33:05.162Z,0.00
2022-10-26T01:34:05.173Z,0.00
2022-10-26T01:35:05.185Z,0.00
2022-10-26T01:36:05.199Z,0.00
2022-10-26T01:37:05.223Z,0.00
2022-10-26T01:38:05.243Z,0.00
2022-10-26T01:39:05.246Z,0.00
2022-10-26T01:40:05.254Z,0.00
2022-10-26T01:41:05.264Z,0.00
2022-10-26T01:42:05.288Z,0.00
2022-10-26T01:43:05.303Z,0.00
2022-10-26T01:44:05.302Z,0.00
2022-10-26T01:45:05.320Z,0.00
2022-10-26T01:46:05.393Z,0.00
2022-10-26T01:47:05.346Z,0.00
2022-10-26T01:48:05.353Z,0.00
2022-10-26T01:49:05.370Z,0.00
2022-10-26T01:50:05.384Z,0.00
2022-10-26T01:51:05.394Z,0.00
2022-10-26T01:52:05.407Z,0.00
2022-10-26T01:53:05.469Z,0.00
2022-10-26T01:54:05.433Z,0.00
2022-10-26T01:55:05.447Z,0.00
2022-10-26T01:56:05.460Z,0.00
2022-10-26T01:57:05.473Z,0.00
2022-10-26T01:58:05.536Z,0.00
2022-10-26T01:59:05.499Z,0.00
2022-10-26T02:00:05.514Z,0.00
2022-10-26T02:01:05.568Z,0.00
2022-10-26T02:02:05.535Z,0.00
2022-10-26T02:03:05.549Z,0.00
2022-10-26T02:04:05.640Z,0.00
2022-10-26T02:05:05.579Z,0.00
2022-10-26T02:06:05.592Z,0.00
2022-10-26T02:07:05.600Z,0.00
2022-10-26T02:08:05.613Z,0.00
2022-10-26T02:09:05.628Z,0.00
2022-10-26T02:10:05.639Z,0.00
2022-10-26T02:11:05.652Z,0.00
2022-10-26T02:12:05.664Z,0.00
2022-10-26T02:13:05.679Z,0.00
2022-10-26T02:14:05.745Z,0.00
2022-10-26T02:15:05.703Z,0.00
2022-10-26T02:16:05.718Z,0.00
2022-10-26T02:17:05.732Z,0.00
2022-10-26T02:18:05.745Z,0.00
2022-10-26T02:19:05.756Z,0.00
2022-10-26T02:20:05.778Z,0.00
2022-10-26T02:21:05.782Z,0.00
2022-10-26T02:22:05.791Z,0.00
2022-10-26T02:23:05.808Z,0.00
2022-10-26T02:24:05.818Z,0.00
2022-10-26T02:25:05.837Z,0.00
2022-10-26T02:26:05.844Z,0.00
2022-10-26T02:27:05.859Z,0.00
2022-10-26T02:28:05.869Z,0.00
2022-10-26T02:29:05.882Z,0.00
2022-10-26T02:30:05.895Z,0.00
2022-10-26T02:31:05.911Z,0.00
2022-10-26T02:32:05.921Z,0.00
2022-10-26T02:33:05.932Z,0.00
2022-10-26T02:34:05.949Z,0.00
2022-10-26T02:35:05.959Z,0.00
2022-10-26T02:36:05.970Z,0.00
2022-10-26T02:37:05.983Z,0.00
2022-10-26T02:38:05.996Z,0.00
2022-10-26T02:39:06.009Z,0.00
2022-10-26T02:40:06.021Z,0.00
2022-10-26T02:41:06.035Z,0.00
2022-10-26T02:42:06.049Z,0.00
2022-10-26T02:43:06.059Z,0.00
2022-10-26T02:44:06.075Z,0.00
2022-10-26T02:45:06.087Z,0.00
2022-10-26T02:46:06.098Z,0.00
2022-10-26T02:47:06.109Z,0.00
2022-10-26T02:48:06.122Z,0.00
2022-10-26T02:49:06.135Z,0.00
2022-10-26T02:50:06.147Z,0.00
2022-10-26T02:51:06.158Z,0.00
2022-10-26T02:52:06.173Z,0.00
2022-10-26T02:53:06.186Z,0.00
2022-10-26T02:54:06.197Z,0.00
2022-10-26T02:55:06.208Z,0.00
2022-10-26T02:56:06.226Z,0.00
2022-10-26T02:57:06.236Z,0.00
2022-10-26T02:58:06.248Z,0.00
2022-10-26T02:59:06.261Z,0.00
2022-10-26T03:00:06.330Z,0.00
2022-10-26T03:01:06.348Z,0.00
2022-10-26T03:02:06.299Z,0.00
2022-10-26T03:03:06.311Z,0.00
2022-10-26T03:04:06.400Z,0.00
2022-10-26T03:05:06.338Z,0.00
2022-10-26T03:06:06.350Z,0.00
2022-10-26T03:07:06.363Z,0.00
2022-10-26T03:08:06.377Z,0.00
2022-10-26T03:09:06.386Z,0.00
2022-10-26T03:10:06.401Z,0.00
2022-10-26T03:11:06.416Z,0.00
2022-10-26T03:12:06.424Z,0.00
2022-10-26T03:13:06.436Z,0.00
2022-10-26T03:14:06.447Z,0.00
2022-10-26T03:15:06.465Z,0.00
2022-10-26T03:16:06.474Z,0.00
2022-10-26T03:17:06.490Z,0.00
2022-10-26T03:18:06.499Z,0.00
2022-10-26T03:19:06.512Z,0.00
2022-10-26T03:20:06.524Z,0.00
2022-10-26T03:21:06.537Z,0.00
2022-10-26T03:22:06.551Z,0.00
2022-10-26T03:23:06.563Z,0.00
2022-10-26T03:24:06.576Z,0.00
2022-10-26T03:25:06.593Z,0.00
2022-10-26T03:26:06.600Z,0.00
2022-10-26T03:27:06.612Z,0.00
2022-10-26T03:28:06.642Z,0.00
2022-10-26T03:29:06.647Z,0.00
2022-10-26T03:30:06.650Z,0.00
2022-10-26T03:31:06.667Z,0.00
2022-10-26T03:32:06.681Z,0.00
2022-10-26T03:33:06.713Z,0.00
2022-10-26T03:34:06.700Z,0.00
2022-10-26T03:35:06.712Z,0.00
2022-10-26T03:36:06.725Z,0.00
2022-10-26T03:37:06.740Z,0.00
2022-10-26T03:38:06.752Z,0.00
2022-10-26T03:39:06.765Z,0.00
2022-10-26T03:40:06.775Z,0.00
2022-10-26T03:41:06.791Z,0.00
2022-10-26T03:42:06.801Z,0.00
2022-10-26T03:43:06.816Z,0.00
2022-10-26T03:44:06.828Z,0.00
2022-10-26T03:45:06.837Z,0.00
2022-10-26T03:46:06.851Z,0.00
2022-10-26T03:47:06.864Z,0.00
2022-10-26T03:48:06.877Z,0.00
2022-10-26T03:49:06.899Z,0.00
2022-10-26T03:50:06.907Z,0.00
2022-10-26T03:51:06.922Z,0.00
2022-10-26T03:52:06.928Z,0.00
2022-10-26T03:53:06.939Z,0.00
2022-10-26T03:54:06.952Z,0.00
2022-10-26T03:55:06.964Z,0.00
2022-10-26T03:56:06.977Z,0.00
2022-10-26T03:57:06.989Z,0.00
2022-10-26T03:58:07.003Z,0.00
2022-10-26T03:59:07.015Z,0.00
2022-10-26T04:00:07.028Z,0.00
2022-10-26T04:01:07.109Z,0.00
2022-10-26T04:02:07.055Z,0.00
2022-10-26T04:03:07.067Z,0.00
2022-10-26T04:04:07.124Z,0.00
2022-10-26T04:05:07.091Z,0.00
2022-10-26T04:06:07.102Z,0.00
2022-10-26T04:07:07.118Z,0.00
2022-10-26T04:08:07.165Z,0.00
2022-10-26T04:09:07.146Z,0.00
2022-10-26T04:10:07.153Z,0.00
2022-10-26T04:11:07.164Z,0.00
2022-10-26T04:12:07.186Z,0.00
2022-10-26T04:13:07.216Z,0.00
2022-10-26T04:14:07.207Z,0.00
2022-10-26T04:15:07.419Z,0.00
2022-10-26T04:16:07.230Z,0.00
2022-10-26T04:17:07.246Z,0.00
2022-10-26T04:18:07.253Z,0.00
2022-10-26T04:19:07.265Z,0.00
2022-10-26T04:20:07.276Z,0.00
2022-10-26T04:21:07.292Z,0.00
2022-10-26T04:22:07.305Z,0.00
2022-10-26T04:23:07.319Z,0.00
2022-10-26T04:24:07.326Z,0.00
2022-10-26T04:25:07.350Z,0.00
2022-10-26T04:26:07.353Z,0.00
2022-10-26T04:27:07.366Z,0.00
2022-10-26T04:28:07.377Z,0.00
2022-10-26T04:29:07.391Z,0.00
2022-10-26T04:30:07.403Z,0.00
2022-10-26T04:31:07.417Z,0.00
2022-10-26T04:32:07.429Z,0.00
2022-10-26T04:33:07.444Z,0.00
2022-10-26T04:34:07.453Z,0.00
2022-10-26T04:35:08.030Z,0.00
2022-10-26T04:36:07.479Z,0.00
2022-10-26T04:37:07.491Z,0.00
2022-10-26T04:38:07.505Z,0.00
2022-10-26T04:39:07.516Z,0.00
2022-10-26T04:40:07.532Z,0.00
2022-10-26T04:41:07.542Z,0.00
2022-10-26T04:42:07.554Z,0.00
2022-10-26T04:43:07.573Z,0.00
2022-10-26T04:44:07.580Z,0.00
2022-10-26T04:45:07.591Z,0.00
2022-10-26T04:46:07.604Z,0.00
2022-10-26T04:47:07.616Z,0.00
2022-10-26T04:48:07.635Z,0.00
2022-10-26T04:49:07.641Z,0.00
2022-10-26T04:50:07.651Z,0.00
2022-10-26T04:51:07.672Z,0.00
2022-10-26T04:52:07.683Z,0.00
2022-10-26T04:53:07.694Z,0.00
2022-10-26T04:54:07.703Z,0.00
2022-10-26T04:55:07.720Z,0.00
2022-10-26T04:56:07.728Z,0.00
2022-10-26T04:57:07.742Z,0.00
2022-10-26T04:58:07.757Z,0.00
2022-10-26T04:59:07.765Z,0.00
2022-10-26T05:00:07.778Z,0.00
2022-10-26T05:01:07.833Z,0.00
2022-10-26T05:02:07.914Z,0.00
2022-10-26T05:03:07.817Z,0.00
2022-10-26T05:04:07.828Z,0.00
2022-10-26T05:05:10.014Z,0.00
2022-10-26T05:06:07.854Z,0.00
2022-10-26T05:07:07.865Z,0.00
2022-10-26T05:08:07.878Z,0.00
2022-10-26T05:09:07.892Z,0.00
2022-10-26T05:10:07.904Z,0.00
2022-10-26T05:11:07.914Z,0.00
2022-10-26T05:12:07.929Z,0.00
2022-10-26T05:13:07.943Z,0.00
2022-10-26T05:14:07.952Z,0.00
2022-10-26T05:15:08.730Z,0.00
2022-10-26T05:16:07.980Z,4.00
2022-10-26T05:17:07.991Z,4.00
2022-10-26T05:18:08.002Z,0.00
2022-10-26T05:19:08.017Z,0.00
2022-10-26T05:20:08.027Z,4.00
2022-10-26T05:21:08.039Z,4.00
2022-10-26T05:22:08.051Z,4.00
2022-10-26T05:23:08.073Z,4.00
2022-10-26T05:24:10.175Z,8.00
2022-10-26T05:25:08.101Z,8.00
2022-10-26T05:26:08.101Z,12.00
2022-10-26T05:27:08.116Z,8.00
2022-10-26T05:28:08.134Z,12.00
2022-10-26T05:29:08.139Z,12.00
2022-10-26T05:30:08.159Z,20.00
2022-10-26T05:31:08.164Z,20.00
2022-10-26T05:32:08.179Z,24.00
2022-10-26T05:33:08.189Z,28.00
2022-10-26T05:34:08.200Z,32.00
2022-10-26T05:35:08.214Z,40.00
2022-10-26T05:36:08.225Z,44.00
2022-10-26T05:37:08.238Z,52.00
2022-10-26T05:38:08.256Z,60.00
2022-10-26T05:39:08.266Z,68.00
2022-10-26T05:40:08.275Z,84.00
2022-10-26T05:41:08.290Z,92.00
2022-10-26T05:42:08.300Z,104.00
2022-10-26T05:43:08.316Z,120.00
2022-10-26T05:44:08.329Z,136.00
2022-10-26T05:45:08.339Z,152.00
2022-10-26T05:46:08.351Z,172.00
2022-10-26T05:47:08.362Z,192.00
2022-10-26T05:48:08.376Z,212.00
2022-10-26T05:49:08.387Z,232.00
2022-10-26T05:50:08.399Z,256.00
2022-10-26T05:51:08.412Z,280.00
2022-10-26T05:52:08.424Z,304.00
2022-10-26T05:53:08.438Z,332.00
2022-10-26T05:54:11.572Z,360.00
2022-10-26T05:55:08.464Z,388.00
2022-10-26T05:56:10.056Z,412.00
2022-10-26T05:57:08.485Z,444.00
2022-10-26T05:58:08.499Z,476.00
2022-10-26T05:59:08.536Z,504.00
2022-10-26T06:00:08.522Z,540.00
2022-10-26T06:01:08.602Z,576.00
2022-10-26T06:02:08.628Z,608.00
2022-10-26T06:03:08.560Z,644.00
2022-10-26T06:04:08.573Z,680.00
2022-10-26T06:05:08.584Z,720.00
2022-10-26T06:06:08.597Z,756.00
2022-10-26T06:07:08.609Z,792.00
2022-10-26T06:08:08.622Z,828.00
2022-10-26T06:09:08.636Z,864.00
2022-10-26T06:10:08.646Z,904.00
2022-10-26T06:11:08.657Z,940.00
2022-10-26T06:12:08.671Z,980.00
2022-10-26T06:13:08.684Z,1020.00
2022-10-26T06:14:08.695Z,1060.00
2022-10-26T06:15:08.708Z,1096.00
2022-10-26T06:16:08.720Z,1132.00
2022-10-26T06:17:08.731Z,1172.00
2022-10-26T06:18:08.744Z,1208.00
2022-10-26T06:19:08.758Z,1244.00
2022-10-26T06:20:08.833Z,1284.00
2022-10-26T06:21:08.782Z,1320.00
2022-10-26T06:22:08.793Z,1356.00
2022-10-26T06:23:08.813Z,1396.00
2022-10-26T06:24:08.831Z,1436.00
2022-10-26T06:25:08.831Z,1472.00
2022-10-26T06:26:08.842Z,1508.00
2022-10-26T06:27:08.856Z,1536.00
2022-10-26T06:28:08.869Z,1572.00
2022-10-26T06:29:08.882Z,1604.00
2022-10-26T06:30:08.891Z,1636.00
2022-10-26T06:31:08.904Z,1664.00
2022-10-26T06:32:08.917Z,1692.00
2022-10-26T06:33:18.246Z,1724.00
2022-10-26T06:34:08.944Z,1756.00
2022-10-26T06:35:08.953Z,1776.00
2022-10-26T06:36:08.968Z,1804.00
2022-10-26T06:37:08.979Z,1828.00
2022-10-26T06:38:08.991Z,1860.00
2022-10-26T06:39:09.004Z,1888.00
2022-10-26T06:40:09.015Z,1916.00
2022-10-26T06:41:09.045Z,1948.00
2022-10-26T06:42:09.043Z,1976.00
2022-10-26T06:43:09.054Z,2000.00
2022-10-26T06:44:09.070Z,2028.00
2022-10-26T06:45:09.112Z,2052.00
2022-10-26T06:46:09.101Z,2076.00
2022-10-26T06:47:09.112Z,2100.00
2022-10-26T06:48:09.118Z,2120.00
2022-10-26T06:49:09.128Z,2132.00
2022-10-26T06:50:09.140Z,2152.00
2022-10-26T06:51:09.153Z,2168.00
2022-10-26T06:52:09.167Z,2188.00
2022-10-26T06:53:09.179Z,2204.00
2022-10-26T06:54:09.191Z,2224.00
2022-10-26T06:55:09.204Z,2232.00
2022-10-26T06:56:09.220Z,2256.00
2022-10-26T06:57:09.228Z,2272.00
2022-10-26T06:58:09.240Z,2284.00
2022-10-26T06:59:09.252Z,2300.00
2022-10-26T07:00:09.267Z,2316.00
2022-10-26T07:01:09.312Z,2332.00
2022-10-26T07:02:09.422Z,2348.00
2022-10-26T07:03:09.303Z,2364.00
2022-10-26T07:04:09.317Z,2384.00
2022-10-26T07:05:09.331Z,2396.00
2022-10-26T07:06:09.407Z,2408.00
2022-10-26T07:07:09.356Z,2420.00
2022-10-26T07:08:09.368Z,2440.00
2022-10-26T07:09:09.383Z,2452.00
2022-10-26T07:10:09.393Z,2468.00
2022-10-26T07:11:09.409Z,2488.00
2022-10-26T07:12:09.420Z,2508.00
2022-10-26T07:13:09.430Z,2512.00
2022-10-26T07:14:09.443Z,2512.00
2022-10-26T07:16:09.470Z,2536.00
2022-10-26T07:17:09.482Z,2548.00
2022-10-26T07:18:09.494Z,2556.00
2022-10-26T07:19:09.507Z,2568.00
2022-10-26T07:20:09.520Z,2588.00
2022-10-26T07:21:09.533Z,2588.00
2022-10-26T07:22:09.547Z,2600.00
2022-10-26T07:23:09.560Z,2616.00
2022-10-26T07:24:09.572Z,2620.00
2022-10-26T07:25:09.589Z,2640.00
2022-10-26T07:26:09.600Z,2652.00
2022-10-26T07:27:09.620Z,2664.00
2022-10-26T07:28:09.624Z,2676.00
2022-10-26T07:29:09.638Z,2688.00
2022-10-26T07:30:09.651Z,2700.00
2022-10-26T07:31:09.665Z,2708.00
2022-10-26T07:32:09.677Z,2724.00
2022-10-26T07:33:09.689Z,2736.00
2022-10-26T07:34:09.701Z,2744.00
2022-10-26T07:35:09.718Z,2748.00
2022-10-26T07:36:09.729Z,2760.00
2022-10-26T07:37:09.746Z,2776.00
2022-10-26T07:38:09.755Z,2788.00
2022-10-26T07:39:09.769Z,2796.00
2022-10-26T07:40:09.829Z,2808.00
2022-10-26T07:41:09.795Z,2824.00
2022-10-26T07:42:09.809Z,2844.00
2022-10-26T07:43:09.826Z,2852.00
2022-10-26T07:44:09.834Z,2872.00
2022-10-26T07:45:09.848Z,2888.00
2022-10-26T07:46:09.860Z,2892.00
2022-10-26T07:47:09.875Z,2908.00
2022-10-26T07:48:09.889Z,2924.00
2022-10-26T07:49:09.919Z,2928.00
2022-10-26T07:50:09.915Z,2944.00
2022-10-26T07:51:09.926Z,2952.00
2022-10-26T07:52:09.941Z,2948.00
2022-10-26T07:53:09.960Z,2964.00
2022-10-26T07:54:09.971Z,2976.00
2022-10-26T07:55:09.979Z,2988.00
2022-10-26T07:56:09.995Z,2992.00
2022-10-26T07:57:10.012Z,3004.00
2022-10-26T07:58:10.025Z,3008.00
2022-10-26T07:59:10.036Z,3012.00
2022-10-26T08:00:10.053Z,3020.00
2022-10-26T08:01:10.168Z,3032.00
2022-10-26T08:02:10.149Z,3040.00
2022-10-26T08:03:10.089Z,3044.00
2022-10-26T08:04:10.103Z,3060.00
2022-10-26T08:05:10.119Z,3060.00
2022-10-26T08:06:10.134Z,3068.00
2022-10-26T08:07:10.145Z,3080.00
2022-10-26T08:08:10.161Z,3092.00
2022-10-26T08:09:10.174Z,3104.00
2022-10-26T08:10:10.187Z,3108.00
2022-10-26T08:29:33.912Z,3264.00
2022-10-26T08:30:30.325Z,3264.00
2022-10-26T08:31:30.296Z,3268.00
2022-10-26T08:32:30.308Z,3268.00
2022-10-26T08:33:30.319Z,3276.00
2022-10-26T08:34:30.330Z,3284.00
2022-10-26T08:35:30.342Z,3292.00
2022-10-26T08:36:30.356Z,3292.00
2022-10-26T08:37:30.369Z,3292.00
2022-10-26T08:38:30.379Z,3292.00
2022-10-26T08:39:30.399Z,3304.00
2022-10-26T08:40:30.406Z,3308.00
2022-10-26T08:41:30.419Z,3316.00
2022-10-26T08:42:30.433Z,3320.00
2022-10-26T08:43:30.445Z,3328.00
2022-10-26T08:44:30.461Z,3336.00
2022-10-26T08:45:35.832Z,3344.00
2022-10-26T08:46:30.486Z,3352.00
2022-10-26T08:47:30.502Z,3360.00
2022-10-26T08:48:30.517Z,3368.00
2022-10-26T08:49:30.529Z,3376.00
2022-10-26T08:50:30.543Z,3384.00
2022-10-26T08:51:30.556Z,3404.00
2022-10-26T08:52:30.573Z,3416.00
2022-10-26T08:53:30.587Z,3432.00
2022-10-26T08:54:30.602Z,3624.00
2022-10-26T08:55:30.683Z,3820.00
2022-10-26T08:56:30.631Z,3740.00
2022-10-26T08:57:30.643Z,3596.00
2022-10-26T08:58:30.657Z,3500.00
2022-10-26T08:59:30.672Z,3476.00
2022-10-26T09:00:30.688Z,3476.00
2022-10-26T09:01:30.754Z,3480.00
2022-10-26T09:02:30.717Z,3472.00
2022-10-26T09:03:30.734Z,3460.00
2022-10-26T09:04:30.750Z,3452.00
2022-10-26T09:05:33.398Z,3432.00
2022-10-26T09:06:30.776Z,3416.00
2022-10-26T09:07:30.797Z,3428.00
2022-10-26T09:08:30.812Z,3432.00
2022-10-26T09:09:30.822Z,3440.00
2022-10-26T09:10:30.837Z,3456.00
2022-10-26T09:11:30.851Z,3476.00
2022-10-26T09:12:30.867Z,3480.00
2022-10-26T09:13:30.886Z,3480.00
2022-10-26T09:14:30.898Z,3484.00
2022-10-26T09:15:30.919Z,3492.00
2022-10-26T09:16:30.942Z,3488.00
2022-10-26T09:17:30.945Z,3500.00
2022-10-26T09:18:30.959Z,3516.00
2022-10-26T09:19:30.980Z,3524.00
2022-10-26T09:20:30.995Z,3540.00
2022-10-26T09:21:31.013Z,3556.00
2022-10-26T09:22:31.019Z,3564.00
2022-10-26T09:23:31.035Z,3576.00
2022-10-26T09:24:31.052Z,3584.00
2022-10-26T09:25:31.069Z,3596.00
2022-10-26T09:26:31.089Z,3608.00
2022-10-26T09:27:31.098Z,3600.00
2022-10-26T09:28:31.117Z,3616.00
2022-10-26T09:29:31.132Z,3616.00
2022-10-26T09:30:31.144Z,3620.00
2022-10-26T09:31:31.174Z,3632.00
2022-10-26T09:32:31.178Z,3632.00
2022-10-26T09:33:31.195Z,3632.00
2022-10-26T09:34:31.211Z,3624.00
2022-10-26T09:35:31.247Z,3624.00
2022-10-26T09:36:31.240Z,3632.00
2022-10-26T09:37:31.258Z,3640.00
2022-10-26T09:38:31.274Z,3632.00
2022-10-26T09:39:31.292Z,3648.00
2022-10-26T09:40:31.307Z,3676.00
2022-10-26T09:41:32.140Z,3684.00
2022-10-26T09:42:31.336Z,3712.00
2022-10-26T09:43:31.352Z,3736.00
2022-10-26T09:44:31.371Z,3756.00
2022-10-26T09:45:31.386Z,3784.00
2022-10-26T09:46:31.405Z,3792.00
2022-10-26T09:47:31.419Z,3780.00
2022-10-26T09:48:31.433Z,3796.00
2022-10-26T09:49:31.455Z,3800.00
2022-10-26T09:50:31.467Z,3820.00
2022-10-26T09:51:31.485Z,3808.00
2022-10-26T09:52:31.502Z,3808.00
2022-10-26T09:53:31.514Z,3812.00
2022-10-26T09:54:31.534Z,3788.00
2022-10-26T09:55:31.548Z,3780.00
2022-10-26T09:56:31.565Z,3756.00
2022-10-26T09:57:31.582Z,3756.00
2022-10-26T09:58:31.597Z,3752.00
2022-10-26T09:59:31.613Z,3772.00
2022-10-26T10:00:31.719Z,3784.00
2022-10-26T10:01:31.738Z,3804.00
2022-10-26T10:02:31.676Z,3832.00
2022-10-26T10:03:31.679Z,3820.00
2022-10-26T10:04:31.696Z,3832.00
2022-10-26T10:06:31.731Z,3840.00
2022-10-26T10:07:32.995Z,3896.00
2022-10-26T10:08:31.764Z,3876.00
2022-10-26T10:09:31.785Z,3908.00
2022-10-26T10:10:31.796Z,3892.00
2022-10-26T10:11:31.812Z,3896.00
2022-10-26T10:12:31.830Z,3896.00
2022-10-26T10:13:31.868Z,3896.00
2022-10-26T10:14:33.564Z,3908.00
2022-10-26T10:15:31.885Z,3880.00
2022-10-26T10:16:31.899Z,3876.00
2022-10-26T10:17:31.920Z,3900.00
2022-10-26T10:18:31.932Z,3884.00
2022-10-26T10:19:31.953Z,3876.00
2022-10-26T10:20:31.965Z,3888.00
2022-10-26T10:21:31.990Z,3864.00
2022-10-26T10:22:31.999Z,3860.00
2022-10-26T10:23:32.020Z,3888.00
2022-10-26T10:24:32.033Z,3880.00
2022-10-26T10:25:32.055Z,3908.00
2022-10-26T10:26:32.067Z,3888.00
2022-10-26T10:27:32.091Z,3932.00
2022-10-26T10:28:32.100Z,3984.00
2022-10-26T10:29:32.119Z,3972.00
2022-10-26T10:30:32.137Z,3988.00
2022-10-26T10:31:32.153Z,3984.00
2022-10-26T10:32:35.375Z,3980.00
2022-10-26T10:33:32.189Z,4016.00
2022-10-26T10:34:32.215Z,4048.00
2022-10-26T10:35:32.222Z,4028.00
2022-10-26T10:36:32.251Z,3992.00
2022-10-26T10:37:32.257Z,4000.00
2022-10-26T10:38:32.275Z,4008.00
2022-10-26T10:39:32.301Z,4008.00
2022-10-26T10:40:32.309Z,3960.00
2022-10-26T10:41:32.328Z,3964.00
2022-10-26T10:42:32.343Z,3976.00
2022-10-26T10:43:32.362Z,3968.00
2022-10-26T10:44:32.379Z,3940.00
2022-10-26T10:45:32.397Z,3900.00
2022-10-26T10:46:32.413Z,3888.00
2022-10-26T10:47:32.455Z,3892.00
2022-10-26T10:48:34.559Z,3904.00
2022-10-26T10:49:32.468Z,3820.00
2022-10-26T10:50:32.482Z,3812.00
2022-10-26T10:51:32.503Z,3848.00
2022-10-26T10:52:32.520Z,3880.00
2022-10-26T10:53:32.536Z,3880.00
2022-10-26T10:54:32.552Z,3848.00
2022-10-26T10:55:32.573Z,3868.00
2022-10-26T10:56:32.589Z,3856.00
2022-10-26T10:57:32.606Z,3828.00
2022-10-26T10:58:32.624Z,3792.00
2022-10-26T10:59:32.649Z,3768.00
2022-10-26T11:00:32.661Z,3800.00
2022-10-26T11:01:32.766Z,3796.00
2022-10-26T11:02:32.761Z,3784.00
2022-10-26T11:03:32.713Z,3792.00
2022-10-26T11:04:32.735Z,3812.00
2022-10-26T11:05:32.759Z,3820.00
2022-10-26T11:06:32.763Z,3836.00
2022-10-26T11:07:32.785Z,3848.00
2022-10-26T11:08:32.802Z,3844.00
2022-10-26T11:09:32.820Z,3788.00
2022-10-26T11:10:32.852Z,3784.00
2022-10-26T11:11:32.870Z,3768.00
2022-10-26T11:12:32.885Z,3804.00
2022-10-26T11:13:32.896Z,3804.00
2022-10-26T11:14:32.932Z,3784.00
2022-10-26T11:15:32.937Z,3788.00
2022-10-26T11:16:32.946Z,3776.00
2022-10-26T11:17:32.963Z,3756.00
2022-10-26T11:18:32.980Z,3716.00
2022-10-26T11:19:32.998Z,3704.00
2022-10-26T11:20:33.018Z,3720.00
2022-10-26T11:21:33.036Z,3700.00
2022-10-26T11:22:33.053Z,3708.00
2022-10-26T11:23:33.075Z,3708.00
2022-10-26T11:24:33.090Z,3700.00
2022-10-26T11:25:33.108Z,3708.00
2022-10-26T11:26:33.126Z,3704.00
2022-10-26T11:27:33.145Z,3688.00
2022-10-26T11:28:33.162Z,3684.00
2022-10-26T11:29:35.175Z,3676.00
2022-10-26T11:30:33.202Z,3644.00
2022-10-26T11:31:33.217Z,3628.00
2022-10-26T11:32:33.234Z,3612.00
2022-10-26T11:33:33.255Z,3596.00
2022-10-26T11:34:33.270Z,3584.00
2022-10-26T11:35:33.293Z,3564.00
2022-10-26T11:36:33.308Z,3572.00
2022-10-26T11:37:33.364Z,3584.00
2022-10-26T11:38:45.657Z,3592.00
2022-10-26T11:39:33.364Z,3596.00
2022-10-26T11:40:33.380Z,3588.00
2022-10-26T11:41:33.402Z,3576.00
2022-10-26T11:42:33.418Z,3576.00
2022-10-26T11:43:33.437Z,3568.00
2022-10-26T11:44:33.460Z,3560.00
2022-10-26T11:45:33.474Z,3564.00
2022-10-26T11:46:33.491Z,3560.00
2022-10-26T11:47:33.510Z,3560.00
2022-10-26T11:48:33.527Z,3564.00
2022-10-26T11:49:33.546Z,3544.00
2022-10-26T11:50:33.564Z,3540.00
2022-10-26T11:51:33.595Z,3536.00
2022-10-26T11:52:33.603Z,3552.00
2022-10-26T11:53:33.622Z,3572.00
2022-10-26T11:54:33.640Z,3588.00
2022-10-26T11:55:33.659Z,3600.00
2022-10-26T11:56:33.679Z,3596.00
2022-10-26T11:57:33.696Z,3600.00
2022-10-26T11:58:33.714Z,3576.00
2022-10-26T11:59:33.854Z,3572.00
2022-10-26T12:00:33.753Z,3572.00
2022-10-26T12:01:33.863Z,3560.00
2022-10-26T12:02:33.922Z,3552.00
2022-10-26T12:03:33.809Z,3552.00
2022-10-26T12:04:33.827Z,3536.00
2022-10-26T12:05:33.845Z,3544.00
2022-10-26T12:06:33.863Z,3512.00
2022-10-26T12:07:33.881Z,3476.00
2022-10-26T12:08:33.901Z,3472.00
2022-10-26T12:09:35.676Z,3468.00
2022-10-26T12:10:33.940Z,3480.00
2022-10-26T12:11:33.960Z,3480.00
2022-10-26T12:12:37.063Z,3488.00
2022-10-26T12:13:33.996Z,3468.00
2022-10-26T12:14:34.012Z,3476.00
2022-10-26T12:15:40.185Z,3464.00
2022-10-26T12:16:34.051Z,3464.00
2022-10-26T12:17:34.071Z,3464.00
2022-10-26T12:18:53.915Z,3464.00
2022-10-26T12:19:34.119Z,3464.00
2022-10-26T12:20:34.126Z,3484.00
2022-10-26T12:21:34.147Z,3492.00
2022-10-26T12:22:34.164Z,3456.00
2022-10-26T12:23:40.976Z,3412.00
2022-10-26T12:24:34.201Z,3404.00
2022-10-26T12:25:34.222Z,3396.00
2022-10-26T12:26:34.242Z,3392.00
2022-10-26T12:27:34.282Z,3388.00
2022-10-26T12:28:34.279Z,3384.00
2022-10-26T12:29:34.299Z,3380.00
2022-10-26T12:30:34.314Z,3388.00
2022-10-26T12:31:34.337Z,3388.00
2022-10-26T12:32:34.354Z,3356.00
2022-10-26T12:33:34.374Z,3356.00
2022-10-26T12:34:34.398Z,3356.00
2022-10-26T12:35:34.410Z,3344.00
2022-10-26T12:36:34.432Z,3324.00
2022-10-26T12:37:36.666Z,3320.00
2022-10-26T12:38:34.472Z,3324.00
2022-10-26T12:39:34.487Z,3304.00
2022-10-26T12:40:34.513Z,3296.00
2022-10-26T12:41:34.526Z,3288.00
2022-10-26T12:42:34.544Z,3296.00
2022-10-26T12:43:34.637Z,3272.00
2022-10-26T12:44:34.583Z,3268.00
2022-10-26T12:45:34.602Z,3272.00
2022-10-26T12:46:34.622Z,3280.00
2022-10-26T12:47:34.639Z,3252.00
2022-10-26T12:48:39.383Z,3248.00
2022-10-26T12:49:34.681Z,3240.00
2022-10-26T12:50:34.698Z,3228.00
2022-10-26T12:51:39.569Z,3220.00
2022-10-26T12:52:34.873Z,3220.00
2022-10-26T12:53:34.757Z,3216.00
2022-10-26T12:54:34.776Z,3212.00
2022-10-26T12:55:34.808Z,3200.00
2022-10-26T12:56:34.817Z,3204.00
2022-10-26T12:57:34.831Z,3200.00